Time;durP1;ratioP1;P1;durP2;ratioP2;P2;SDS_P1;SDS_P2;PMS_P1;PMS_P2;Temp;Humidity;BMP_temperature;BMP_pressure;BME280_temperature;BME280_humidity;BME280_pressure;Samples;Min_cycle;Max_cycle;Signal;HPM_P1;HPM_P2
2024/03/01 00:02:28;;;;;;;73.55;34.95;;;;;;;9.33;100.00;100407.31;1857065;72;32755;-58
2024/03/01 00:04:58;;;;;;;72.40;40.12;;;;;;;9.28;100.00;100399.30;1838359;78;25440;-56
2024/03/01 00:07:24;;;;;;;69.92;33.63;;;;;;;9.30;100.00;100395.78;1838263;78;28129;-54
2024/03/01 00:12:26;;;;;;;79.90;37.20;;;;;;;9.38;100.00;100405.89;1906019;74;34763;-57
2024/03/01 00:14:52;;;;;;;74.12;37.35;;;;;;;9.29;100.00;100393.61;1860180;77;25623;-57
2024/03/01 00:17:24;;;;;;;72.58;37.17;;;;;;;9.29;100.00;100388.77;1857049;77;32142;-57
2024/03/01 00:22:13;;;;;;;68.80;37.80;;;;;;;9.31;100.00;100380.64;1925104;74;34707;-56
2024/03/01 00:24:42;;;;;;;69.85;36.45;;;;;;;9.25;100.00;100383.73;1822360;78;25395;-57
2024/03/01 00:27:12;;;;;;;71.95;36.88;;;;;;;9.24;100.00;100383.47;1855893;77;27489;-57
2024/03/01 00:29:40;;;;;;;68.60;34.45;;;;;;;9.23;100.00;100373.75;1822292;78;25610;-57
2024/03/01 00:32:09;;;;;;;71.85;35.35;;;;;;;9.23;100.00;100374.58;1855587;77;25393;-55
2024/03/01 00:34:39;;;;;;;71.33;37.20;;;;;;;9.23;100.00;100373.23;1822376;78;25831;-56
2024/03/01 00:37:12;;;;;;;72.35;38.10;;;;;;;9.23;100.00;100371.88;1855831;77;25524;-57
2024/03/01 00:39:40;;;;;;;74.67;38.75;;;;;;;9.23;100.00;100367.83;1822465;78;27424;-57
2024/03/01 00:42:08;;;;;;;79.55;39.20;;;;;;;9.22;100.00;100359.47;1855822;77;25510;-55
2024/03/01 00:44:35;;;;;;;74.53;38.70;;;;;;;9.21;100.00;100363.81;1822250;78;25534;-56
2024/03/01 00:47:01;;;;;;;76.50;38.55;;;;;;;9.19;100.00;100357.36;1855673;77;25526;-53
2024/03/01 00:49:28;;;;;;;75.42;38.78;;;;;;;9.18;100.00;100355.77;1822201;78;25439;-53
2024/03/01 00:51:54;;;;;;;81.85;40.60;;;;;;;9.18;100.00;100342.28;1855638;77;28526;-55
2024/03/01 00:54:21;;;;;;;69.65;39.20;;;;;;;9.19;100.00;100345.77;1821199;78;25603;-55
2024/03/01 00:56:48;;;;;;;76.15;40.35;;;;;;;9.19;100.00;100337.67;1855644;77;25366;-55
2024/03/01 00:59:15;;;;;;;71.87;37.90;;;;;;;9.19;100.00;100339.02;1822090;78;25606;-55
2024/03/01 01:01:42;;;;;;;73.70;39.20;;;;;;;9.18;100.00;100336.06;1855649;77;25473;-52
2024/03/01 01:04:08;;;;;;;80.28;39.50;;;;;;;9.14;100.00;100326.42;1822115;78;27525;-53
2024/03/01 01:06:34;;;;;;;76.85;40.83;;;;;;;9.13;100.00;100322.14;1855732;77;25563;-56
2024/03/01 01:09:01;;;;;;;77.50;40.48;;;;;;;9.14;100.00;100323.72;1822061;78;25397;-53
2024/03/01 01:11:29;;;;;;;72.72;39.50;;;;;;;9.13;100.00;100315.39;1855617;77;25604;-54
2024/03/01 01:13:56;;;;;;;77.37;41.48;;;;;;;9.12;100.00;100313.78;1822091;78;25555;-53
2024/03/01 01:16:23;;;;;;;76.12;39.53;;;;;;;9.13;100.00;100318.09;1855659;77;28213;-52
2024/03/01 01:18:50;;;;;;;71.10;38.78;;;;;;;9.11;100.00;100317.59;1822017;78;25690;-53
2024/03/01 01:21:16;;;;;;;79.35;39.78;;;;;;;9.10;100.00;100316.77;1850481;77;25438;-53
2024/03/01 01:23:43;;;;;;;74.40;39.90;;;;;;;9.10;100.00;100319.47;1845180;77;25534;-55
2024/03/01 01:26:10;;;;;;;75.62;39.05;;;;;;;9.08;100.00;100312.78;1771027;79;25428;-54
2024/03/01 01:28:37;;;;;;;78.50;39.70;;;;;;;9.07;100.00;100305.22;1802369;79;27426;-55
2024/03/01 01:31:07;;;;;;;78.07;40.38;;;;;;;9.06;100.00;100292.84;1802270;79;25608;-54
2024/03/01 01:33:32;;;;;;;75.90;39.85;;;;;;;9.07;100.00;100293.08;1801864;79;26643;-56
2024/03/01 01:35:58;;;;;;;79.70;39.58;;;;;;;9.04;100.00;100289.66;1750878;81;25621;-54
2024/03/01 01:38:25;;;;;;;75.22;40.00;;;;;;;9.05;100.00;100291.80;1801805;79;25443;-54
2024/03/01 01:40:52;;;;;;;74.20;39.65;;;;;;;9.04;100.00;100278.86;1801756;79;27459;-55
2024/03/01 01:43:19;;;;;;;74.92;39.73;;;;;;;9.04;100.00;100278.04;1801690;79;25546;-55
2024/03/01 01:45:45;;;;;;;78.60;41.98;;;;;;;9.03;100.00;100280.51;1801774;79;25628;-53
2024/03/01 01:48:12;;;;;;;77.95;41.02;;;;;;;9.01;100.00;100286.72;1801738;79;25574;-53
2024/03/01 01:50:38;;;;;;;74.40;38.80;;;;;;;9.01;100.00;100276.75;1770448;81;25378;-53
2024/03/01 01:53:06;;;;;;;74.72;37.67;;;;;;;8.98;100.00;100278.14;1801755;79;27491;-53
2024/03/01 01:55:34;;;;;;;75.00;39.65;;;;;;;8.96;100.00;100272.80;1801665;79;25633;-53
2024/03/01 01:58:01;;;;;;;81.12;40.58;;;;;;;8.97;100.00;100268.98;1801747;79;25480;-57
2024/03/01 02:00:30;;;;;;;79.40;40.23;;;;;;;8.95;100.00;100274.68;1770331;81;26189;-55
2024/03/01 02:02:57;;;;;;;;;;;;;;;8.94;100.00;100270.40;1804451;79;25549;-53
2024/03/01 02:05:24;;;;;;;80.83;37.40;;;;;;;8.92;100.00;100270.43;1801813;79;27699;-56
2024/03/01 02:07:51;;;;;;;72.80;37.00;;;;;;;8.90;100.00;100261.84;1801698;79;25802;-53
2024/03/01 02:10:19;;;;;;;72.60;37.13;;;;;;;8.88;100.00;100254.05;1801771;79;25408;-53
2024/03/01 02:12:57;;;;;;;83.17;42.00;;;;;;;8.87;100.00;100257.86;1801685;79;25804;-56
2024/03/01 02:15:25;;;;;;;84.20;44.48;;;;;;;8.87;100.00;100250.30;1801809;79;25379;-56
2024/03/01 02:17:53;;;;;;;77.37;38.53;;;;;;;8.84;100.00;100240.13;1802070;79;27504;-57
2024/03/01 02:20:22;;;;;;;78.85;40.20;;;;;;;8.83;100.00;100246.61;1801702;79;25605;-58
2024/03/01 02:23:01;;;;;;;80.90;40.63;;;;;;;8.83;100.00;100251.44;1815410;79;25533;-56
2024/03/01 02:25:28;;;;;;;77.95;41.15;;;;;;;8.82;100.00;100247.16;1792269;80;25509;-56
2024/03/01 02:27:55;;;;;;;77.15;39.92;;;;;;;8.82;100.00;100251.21;1809867;79;25614;-56
2024/03/01 02:30:21;;;;;;;85.00;40.48;;;;;;;8.82;100.00;100254.44;1792248;79;28100;-57
2024/03/01 02:32:48;;;;;;;78.02;39.48;;;;;;;8.81;100.00;100250.95;1809611;79;26152;-55
2024/03/01 02:35:14;;;;;;;83.80;41.42;;;;;;;8.83;100.00;100250.66;1792199;79;25558;-55
2024/03/01 02:37:44;;;;;;;80.60;40.08;;;;;;;8.82;100.00;100242.30;1809652;79;25551;-56
2024/03/01 02:40:13;;;;;;;82.30;40.63;;;;;;;8.83;100.00;100239.86;1792240;79;25553;-55
2024/03/01 02:42:39;;;;;;;84.72;41.15;;;;;;;8.83;100.00;100234.47;1809917;79;27489;-57
2024/03/01 02:45:08;;;;;;;82.80;40.12;;;;;;;8.82;100.00;100237.73;1792068;80;25641;-54
2024/03/01 02:47:35;;;;;;;85.97;41.98;;;;;;;8.81;100.00;100232.06;1809828;79;25545;-54
2024/03/01 02:50:01;;;;;;;93.15;41.55;;;;;;;8.82;100.00;100230.98;1792164;80;25366;-53
2024/03/01 02:52:27;;;;;;;83.47;41.63;;;;;;;8.82;100.00;100228.81;1809719;79;25533;-54
2024/03/01 02:54:54;;;;;;;82.08;41.98;;;;;;;8.83;100.00;100227.17;1792147;80;27567;-54
2024/03/01 02:57:20;;;;;;;84.95;42.05;;;;;;;8.82;100.00;100229.64;1809576;79;25598;-55
2024/03/01 02:59:47;;;;;;;90.07;43.13;;;;;;;8.83;100.00;100227.17;1792158;79;25395;-54
2024/03/01 03:02:13;;;;;;;90.85;42.83;;;;;;;8.83;100.00;100223.68;1809584;79;25580;-55
2024/03/01 03:04:39;;;;;;;87.33;43.38;;;;;;;8.84;100.00;100220.69;1792233;79;25392;-53
2024/03/01 03:07:05;;;;;;;96.87;46.05;;;;;;;8.84;100.00;100221.25;1809663;79;28147;-54
2024/03/01 03:09:32;;;;;;;92.57;44.27;;;;;;;8.85;100.00;100222.27;1792071;80;25527;-52
2024/03/01 03:11:58;;;;;;;92.37;44.10;;;;;;;8.85;100.00;100214.73;1809663;79;25558;-53
2024/03/01 03:14:24;;;;;;;90.40;44.73;;;;;;;8.84;100.00;100210.45;1792111;79;25569;-53
2024/03/01 03:16:51;;;;;;;89.45;44.60;;;;;;;8.86;100.00;100212.30;1809687;79;25450;-53
2024/03/01 03:19:18;;;;;;;84.13;42.35;;;;;;;8.85;100.00;100211.48;1792115;79;27809;-53
2024/03/01 03:21:44;;;;;;;92.20;46.73;;;;;;;8.86;100.00;100206.35;1823930;77;25839;-53
2024/03/01 03:24:12;;;;;;;92.00;46.18;;;;;;;8.87;100.00;100209.84;1770321;81;25554;-53
2024/03/01 03:26:38;;;;;;;93.78;45.80;;;;;;;8.87;100.00;100201.22;1801686;79;25657;-56
2024/03/01 03:29:04;;;;;;;90.00;46.68;;;;;;;8.87;100.00;100202.56;1801793;79;25443;-57
2024/03/01 03:31:31;;;;;;;95.30;47.83;;;;;;;8.86;100.00;100200.95;1770382;81;27352;-57
2024/03/01 03:33:58;;;;;;;88.15;46.63;;;;;;;8.87;100.00;100200.39;1801672;79;25166;-57
2024/03/01 03:36:24;;;;;;;85.83;46.58;;;;;;;8.86;100.00;100200.16;1770386;81;25679;-54
2024/03/01 03:38:51;;;;;;;82.02;40.43;;;;;;;8.86;100.00;100203.66;1801665;79;26085;-53
2024/03/01 03:41:17;;;;;;;89.90;42.40;;;;;;;8.86;100.00;100202.30;1770334;81;25392;-54
2024/03/01 03:43:44;;;;;;;87.47;41.65;;;;;;;8.86;100.00;100196.91;1801695;79;28089;-53
2024/03/01 03:46:11;;;;;;;90.77;43.17;;;;;;;8.88;100.00;100197.96;1801589;79;26276;-55
2024/03/01 03:48:38;;;;;;;79.37;41.08;;;;;;;8.87;100.00;100191.78;1770286;81;25625;-52
2024/03/01 03:51:05;;;;;;;86.92;40.80;;;;;;;8.85;100.00;100185.86;1801636;79;25637;-53
2024/03/01 03:53:32;;;;;;;79.37;40.12;;;;;;;8.83;100.00;100186.71;1801712;79;25209;-53
2024/03/01 03:55:58;;;;;;;72.80;39.05;;;;;;;8.82;100.00;100187.02;1770292;81;28125;-55
2024/03/01 03:58:24;;;;;;;77.27;38.67;;;;;;;8.77;100.00;100187.38;1801606;79;25594;-54
2024/03/01 04:00:50;;;;;;;71.90;38.55;;;;;;;8.76;100.00;100193.06;1770286;80;25408;-54
2024/03/01 04:03:17;;;;;;;72.92;38.02;;;;;;;8.73;100.00;100184.21;1801639;79;25570;-54
2024/03/01 04:05:44;;;;;;;71.53;36.83;;;;;;;8.72;100.00;100177.23;1801701;79;25567;-54
2024/03/01 04:08:11;;;;;;;73.35;39.15;;;;;;;8.68;100.00;100182.97;1801660;79;28079;-57
2024/03/01 04:10:38;;;;;;;68.55;36.08;;;;;;;8.67;100.00;100179.48;1801568;79;25809;-54
2024/03/01 04:13:07;;;;;;;77.62;37.73;;;;;;;8.64;100.00;100175.23;1801663;79;25602;-56
2024/03/01 04:15:34;;;;;;;69.03;36.85;;;;;;;8.62;100.00;100173.39;1801516;79;25395;-54
2024/03/01 04:18:02;;;;;;;72.85;38.08;;;;;;;8.61;100.00;100180.66;1770328;80;25574;-53
2024/03/01 04:20:28;;;;;;;66.75;35.23;;;;;;;8.57;100.00;100173.72;1801650;79;27479;-54
2024/03/01 04:22:54;;;;;;;66.75;36.40;;;;;;;8.55;100.00;100169.73;1812064;78;25528;-53
2024/03/01 04:25:23;;;;;;;72.92;37.33;;;;;;;8.53;100.00;100174.08;1815612;79;25622;-53
2024/03/01 04:27:50;;;;;;;74.65;38.05;;;;;;;8.52;100.00;100175.72;1815790;78;25658;-53
2024/03/01 04:30:16;;;;;;;70.03;36.23;;;;;;;8.51;100.00;100170.06;1815660;79;25405;-54
2024/03/01 04:32:42;;;;;;;70.95;36.33;;;;;;;8.48;100.00;100171.47;1792197;80;28509;-53
2024/03/01 04:35:09;;;;;;;79.58;38.23;;;;;;;8.48;100.00;100172.00;1809453;79;25645;-54
2024/03/01 04:37:35;;;;;;;71.30;35.40;;;;;;;8.46;100.00;100175.55;1792117;80;25506;-54
2024/03/01 04:40:03;;;;;;;72.65;35.63;;;;;;;8.43;100.00;100168.87;1809541;79;25645;-56
2024/03/01 04:42:29;;;;;;;66.28;35.80;;;;;;;8.40;100.00;100168.08;1792078;80;25615;-55
2024/03/01 04:44:55;;;;;;;61.08;33.38;;;;;;;8.37;100.00;100170.80;1809565;79;26935;-54
2024/03/01 04:47:23;;;;;;;64.80;32.88;;;;;;;8.36;100.00;100159.80;1792096;79;25543;-56
2024/03/01 04:49:49;;;;;;;63.73;33.33;;;;;;;8.35;100.00;100161.44;1809602;79;25460;-54
2024/03/01 04:52:16;;;;;;;67.40;35.15;;;;;;;8.32;100.00;100160.67;1792052;80;25594;-56
2024/03/01 04:54:42;;;;;;;63.38;33.00;;;;;;;8.30;100.00;100170.95;1809610;79;25582;-56
2024/03/01 04:57:10;;;;;;;64.15;33.70;;;;;;;8.28;100.00;100166.42;1792085;80;27490;-55
2024/03/01 04:59:38;;;;;;;66.17;34.67;;;;;;;8.25;100.00;100170.48;1809500;79;25452;-56
2024/03/01 05:02:06;;;;;;;63.95;32.58;;;;;;;8.22;100.00;100161.12;1792325;79;25551;-53
2024/03/01 05:04:34;;;;;;;72.10;35.40;;;;;;;8.21;100.00;100158.72;1809536;79;25617;-52
2024/03/01 05:07:03;;;;;;;66.37;35.67;;;;;;;8.20;100.00;100162.50;1792407;79;25497;-52
2024/03/01 05:09:29;;;;;;;71.77;36.25;;;;;;;8.17;100.00;100166.59;1809731;79;27535;-54
2024/03/01 05:11:57;;;;;;;68.33;36.45;;;;;;;8.15;100.00;100166.06;1792116;79;25558;-55
2024/03/01 05:14:23;;;;;;;70.47;37.23;;;;;;;8.14;100.00;100165.02;1809760;79;25557;-53
2024/03/01 05:16:49;;;;;;;67.58;36.75;;;;;;;8.11;100.00;100162.37;1792203;80;25521;-53
2024/03/01 05:19:16;;;;;;;70.35;35.95;;;;;;;8.07;100.00;100161.38;1809726;79;25459;-55
2024/03/01 05:21:42;;;;;;;72.53;36.28;;;;;;;8.04;100.00;100166.80;1795697;78;27468;-57
2024/03/01 05:24:08;;;;;;;67.47;36.30;;;;;;;8.04;100.00;100168.70;1854995;77;25366;-54
2024/03/01 05:26:35;;;;;;;69.85;37.28;;;;;;;8.01;100.00;100170.62;1821475;78;25379;-56
2024/03/01 05:29:01;;;;;;;73.15;34.75;;;;;;;7.98;100.00;100163.92;1854984;77;25639;-52
2024/03/01 05:31:36;;;;;;;68.97;34.63;;;;;;;7.95;100.00;100174.48;1821516;78;25605;-55
2024/03/01 05:34:03;;;;;;;71.70;35.20;;;;;;;7.92;100.00;100171.84;1851143;77;27476;-57
2024/03/01 05:36:29;;;;;;;69.55;37.15;;;;;;;7.89;100.00;100168.39;1821358;78;26121;-53
2024/03/01 05:38:55;;;;;;;67.70;36.08;;;;;;;7.89;100.00;100168.95;1854986;77;25516;-54
2024/03/01 05:41:21;;;;;;;63.48;34.75;;;;;;;7.86;100.00;100160.34;1821418;78;26612;-55
2024/03/01 05:43:47;;;;;;;70.70;37.20;;;;;;;7.83;100.00;100164.98;1854998;77;25375;-54
2024/03/01 05:46:14;;;;;;;61.37;33.50;;;;;;;7.82;100.00;100167.41;1821481;78;27375;-55
2024/03/01 05:48:41;;;;;;;64.58;35.70;;;;;;;7.80;100.00;100164.22;1854909;77;25585;-54
2024/03/01 05:51:11;;;;;;;65.12;34.20;;;;;;;7.79;100.00;100167.99;1821476;78;25400;-55
2024/03/01 05:53:35;;;;;;;59.18;34.78;;;;;;;7.76;100.00;100163.19;1854706;77;25491;-56
2024/03/01 05:56:02;;;;;;;68.25;35.60;;;;;;;7.75;100.00;100176.41;1821593;78;25387;-53
2024/03/01 05:58:28;;;;;;;58.70;33.05;;;;;;;7.74;100.00;100171.32;1855000;77;27525;-53
2024/03/01 06:00:55;;;;;;;61.77;33.92;;;;;;;7.72;100.00;100172.95;1821387;78;25498;-54
2024/03/01 06:03:22;;;;;;;56.85;32.65;;;;;;;7.72;100.00;100167.57;1854959;77;25618;-52
2024/03/01 06:05:50;;;;;;;69.37;33.58;;;;;;;7.72;100.00;100172.17;1821445;78;25942;-54
2024/03/01 06:08:16;;;;;;;59.83;32.23;;;;;;;7.70;100.00;100181.88;1855017;77;25541;-54
2024/03/01 06:10:44;;;;;;;59.83;32.70;;;;;;;7.69;100.00;100165.45;1821477;78;27808;-55
2024/03/01 06:13:10;;;;;;;60.23;33.08;;;;;;;7.71;100.00;100163.83;1854923;77;25420;-54
2024/03/01 06:15:37;;;;;;;61.33;33.33;;;;;;;7.71;100.00;100167.31;1821431;78;25450;-53
2024/03/01 06:18:04;;;;;;;65.83;32.42;;;;;;;7.72;100.00;100168.12;1854944;77;25833;-55
2024/03/01 06:20:31;;;;;;;58.40;33.28;;;;;;;7.73;100.00;100170.53;1821497;78;25406;-53
2024/03/01 06:22:57;;;;;;;55.95;32.88;;;;;;;7.75;100.00;100166.20;1858028;77;27855;-53
2024/03/01 06:25:24;;;;;;;58.90;32.00;;;;;;;7.75;100.00;100166.99;1827436;78;25449;-53
2024/03/01 06:27:50;;;;;;;55.60;31.42;;;;;;;7.77;100.00;100173.44;1861378;77;25552;-53
2024/03/01 06:30:17;;;;;;;54.42;30.48;;;;;;;7.79;100.00;100176.08;1827482;78;25374;-54
2024/03/01 06:32:43;;;;;;;58.50;31.23;;;;;;;7.81;100.00;100166.36;1861311;77;25591;-52
2024/03/01 06:35:09;;;;;;;57.67;31.42;;;;;;;7.83;100.00;100164.16;1827537;78;27331;-56
2024/03/01 06:37:35;;;;;;;54.70;31.40;;;;;;;7.85;100.00;100165.48;1861178;77;25391;-55
2024/03/01 06:40:09;;;;;;;53.40;30.32;;;;;;;7.91;100.00;100163.50;1827527;78;25546;-54
2024/03/01 06:42:34;;;;;;;52.17;30.77;;;;;;;7.95;100.00;100167.23;1861037;77;26527;-54
2024/03/01 06:45:01;;;;;;;53.28;28.67;;;;;;;7.98;100.00;100161.78;1827555;78;25380;-55
2024/03/01 06:47:33;;;;;;;52.95;29.87;;;;;;;8.02;100.00;100160.91;1861282;77;27496;-53
2024/03/01 06:49:56;;;;;;;50.30;29.82;;;;;;;8.06;100.00;100160.33;1826237;78;25406;-56
2024/03/01 06:52:22;;;;;;;51.08;28.23;;;;;;;8.10;100.00;100157.28;1861304;77;25402;-54
2024/03/01 06:54:51;;;;;;;56.40;28.87;;;;;;;8.14;100.00;100158.28;1827470;78;26428;-57
2024/03/01 06:57:18;;;;;;;52.80;29.32;;;;;;;8.17;100.00;100151.77;1861303;77;25371;-56
2024/03/01 06:59:45;;;;;;;53.28;28.70;;;;;;;8.22;100.00;100160.30;1827526;78;27506;-55
2024/03/01 07:02:12;;;;;;;48.83;27.75;;;;;;;8.24;100.00;100151.39;1861155;77;25569;-54
2024/03/01 07:04:38;;;;;;;50.38;27.27;;;;;;;8.28;100.00;100153.73;1827625;78;25516;-52
2024/03/01 07:07:05;;;;;;;59.65;29.23;;;;;;;8.30;100.00;100154.78;1861342;77;25562;-55
2024/03/01 07:09:33;;;;;;;52.78;28.70;;;;;;;8.33;100.00;100162.28;1827560;78;25583;-53
2024/03/01 07:11:59;;;;;;;47.67;27.60;;;;;;;8.35;100.00;100162.23;1830252;77;27570;-57
2024/03/01 07:14:26;;;;;;;46.15;26.05;;;;;;;8.39;100.00;100161.08;1827410;78;25525;-56
2024/03/01 07:16:52;;;;;;;53.02;27.52;;;;;;;8.41;100.00;100161.58;1861265;77;25603;-56
2024/03/01 07:19:19;;;;;;;57.17;27.77;;;;;;;8.46;100.00;100164.77;1827447;78;26511;-55
2024/03/01 07:21:46;;;;;;;44.88;26.02;;;;;;;8.50;100.00;100173.31;1861230;77;25552;-54
2024/03/01 07:24:13;;;;;;;47.30;26.42;;;;;;;8.53;100.00;100163.29;1827413;78;27582;-55
2024/03/01 07:26:39;;;;;;;44.23;26.93;;;;;;;8.64;100.00;100162.54;1861148;77;25386;-56
2024/03/01 07:29:06;;;;;;;47.60;26.87;;;;;;;8.75;100.00;100170.70;1827482;78;25549;-54
2024/03/01 07:31:32;;;;;;;46.37;25.70;;;;;;;8.79;99.90;100164.94;1861174;77;25563;-54
2024/03/01 07:33:58;;;;;;;43.63;25.45;;;;;;;8.89;100.00;100163.16;1827506;78;25415;-56
2024/03/01 07:36:24;;;;;;;47.55;26.30;;;;;;;9.05;100.00;100171.73;1861233;77;27463;-54
2024/03/01 07:38:50;;;;;;;51.18;26.05;;;;;;;9.25;100.00;100156.45;1827380;78;25627;-54
2024/03/01 07:41:21;;;;;;;43.83;25.55;;;;;;;9.53;100.00;100159.89;1861222;77;25636;-55
2024/03/01 07:43:46;;;;;;;45.48;26.12;;;;;;;9.85;100.00;100162.11;1827215;78;26276;-55
2024/03/01 07:46:12;;;;;;;41.13;22.55;;;;;;;10.21;100.00;100159.87;1861276;77;25435;-55
2024/03/01 07:48:39;;;;;;;44.25;23.60;;;;;;;10.68;97.83;100164.12;1827484;78;27789;-55
2024/03/01 07:51:06;;;;;;;40.33;23.92;;;;;;;11.26;97.81;100159.49;1859767;77;26003;-55
2024/03/01 07:53:33;;;;;;;41.42;23.12;;;;;;;11.73;92.82;100156.94;1826928;78;25592;-54
2024/03/01 07:56:00;;;;;;;38.73;23.83;;;;;;;12.20;91.95;100153.56;1860839;77;25620;-54
2024/03/01 07:58:26;;;;;;;41.15;22.87;;;;;;;12.50;90.15;100152.51;1827107;78;25700;-53
2024/03/01 08:00:53;;;;;;;41.42;24.80;;;;;;;12.75;89.00;100155.99;1860880;77;27511;-55
2024/03/01 08:03:19;;;;;;;41.13;24.92;;;;;;;12.80;87.04;100144.38;1826963;78;25774;-54
2024/03/01 08:05:46;;;;;;;36.95;21.90;;;;;;;13.03;87.78;100151.69;1861163;77;25577;-55
2024/03/01 08:08:21;;;;;;;37.05;21.48;;;;;;;13.23;85.67;100150.70;1827421;78;25528;-55
2024/03/01 08:10:49;;;;;;;36.28;20.50;;;;;;;13.51;87.01;100146.13;1860757;77;25632;-57
2024/03/01 08:13:18;;;;;;;35.15;20.27;;;;;;;13.69;82.83;100146.22;1827447;78;27466;-54
2024/03/01 08:15:45;;;;;;;36.48;20.17;;;;;;;13.76;81.30;100152.48;1861170;77;25605;-53
2024/03/01 08:18:24;;;;;;;30.95;20.75;;;;;;;13.84;82.75;100152.94;1826044;78;25981;-54
2024/03/01 08:21:07;;;;;;;;;;;;;;;13.91;79.97;100145.06;1863962;77;25911;-53
2024/03/01 08:23:38;;;;;;;37.33;21.05;;;;;;;13.85;79.11;100157.84;1853184;77;25366;-52
2024/03/01 08:26:14;;;;;;;33.08;20.23;;;;;;;13.71;77.93;100162.98;1844493;77;27022;-54
2024/03/01 08:28:44;;;;;;;34.08;20.88;;;;;;;13.59;77.22;100156.92;1844397;77;25455;-54
2024/03/01 08:31:25;;;;;;;33.08;19.82;;;;;;;13.54;77.55;100146.25;1844477;77;25613;-55
2024/03/01 08:34:05;;;;;;;34.15;20.70;;;;;;;13.57;77.15;100136.63;1844458;77;26003;-56
2024/03/01 08:36:32;;;;;;;38.67;20.80;;;;;;;13.63;76.62;100146.18;1844312;77;25605;-53
2024/03/01 08:39:11;;;;;;;33.20;19.82;;;;;;;13.53;75.66;100143.30;1770321;79;27470;-54
2024/03/01 08:41:42;;;;;;;36.08;20.00;;;;;;;13.62;75.31;100147.30;1801557;79;25903;-54
2024/03/01 08:44:54;;;;;;;34.40;20.68;;;;;;;13.66;74.30;100148.23;1801880;79;25593;-56
2024/03/01 08:47:37;;;;;;;34.03;20.30;;;;;;;13.53;74.13;100141.16;1801813;79;26117;-53
2024/03/01 08:50:36;;;;;;;35.33;20.55;;;;;;;13.41;73.72;100139.16;1801888;79;25482;-53
2024/03/01 08:53:14;;;;;;;30.00;18.55;;;;;;;13.36;73.73;100142.08;1800857;79;28494;-53
2024/03/01 08:55:43;;;;;;;36.80;20.40;;;;;;;13.35;73.82;100124.18;1796980;79;25743;-53
2024/03/01 08:58:19;;;;;;;29.87;18.60;;;;;;;13.46;74.44;100136.25;1801917;79;25598;-55
2024/03/01 09:00:50;;;;;;;32.33;20.10;;;;;;;13.48;73.40;100129.13;1801022;79;25999;-56
2024/03/01 09:03:23;;;;;;;37.25;21.68;;;;;;;13.36;72.10;100127.14;1801804;79;25533;-54
2024/03/01 09:05:57;;;;;;;31.77;20.12;;;;;;;13.19;71.47;100119.89;1801761;79;27513;-56
2024/03/01 09:08:36;;;;;;;31.42;19.10;;;;;;;13.10;70.10;100121.30;1770374;80;25536;-53
2024/03/01 09:11:04;;;;;;;26.80;18.65;;;;;;;13.03;71.55;100120.47;1801991;79;35073;-56
2024/03/01 09:13:32;;;;;;;33.28;18.90;;;;;;;12.96;71.62;100119.41;1770307;81;25566;-54
2024/03/01 09:15:59;;;;;;;32.70;20.77;;;;;;;12.88;70.40;100119.12;1801038;79;25621;-55
2024/03/01 09:18:43;;;;;;;34.63;19.55;;;;;;;12.89;72.18;100104.44;1769621;80;27870;-59
2024/03/01 09:21:34;;;;;;;31.77;18.85;;;;;;;13.01;72.28;100110.51;1801756;79;25474;-56
2024/03/01 09:27:00;;;;;;;30.48;17.65;;;;;;;13.30;70.40;100085.78;1764277;75;26717;-56
2024/03/01 09:29:35;;;;;;;74.20;50.65;;;;;;;13.36;71.60;100083.68;1756434;81;25457;-60
2024/03/01 09:32:04;;;;;;;34.48;19.52;;;;;;;13.43;72.29;100082.03;1756276;81;27652;-56
2024/03/01 09:34:34;;;;;;;29.82;18.23;;;;;;;13.47;70.72;100084.87;1756357;81;25990;-54
2024/03/01 09:37:03;;;;;;;29.25;17.35;;;;;;;13.46;69.92;100075.12;1756333;81;25443;-55
2024/03/01 09:39:31;;;;;;;26.52;16.20;;;;;;;13.43;69.68;100072.52;1756426;81;25549;-54
2024/03/01 09:42:33;;;;;;;28.63;17.67;;;;;;;13.43;69.38;100085.28;1756594;81;25423;-54
2024/03/01 09:45:39;;;;;;;32.42;16.25;;;;;;;13.37;68.16;100085.28;1756321;81;27663;-56
2024/03/01 09:48:26;;;;;;;30.27;17.92;;;;;;;13.31;68.41;100081.13;1756264;81;25558;-55
2024/03/01 09:51:27;;;;;;;34.13;18.48;;;;;;;13.33;68.04;100077.00;1756379;81;25417;-53
2024/03/01 09:54:18;;;;;;;25.72;16.07;;;;;;;13.27;67.93;100081.00;1707046;83;25594;-54
2024/03/01 09:57:19;;;;;;;38.35;18.40;;;;;;;13.33;68.94;100082.44;1707084;84;25587;-55
2024/03/01 10:00:07;;;;;;;28.10;17.12;;;;;;;13.60;69.04;100079.72;1701504;84;27063;-56
2024/03/01 10:02:54;;;;;;;27.95;16.23;;;;;;;13.81;68.35;100078.30;1706332;84;26346;-53
2024/03/01 10:06:00;;;;;;;30.08;15.80;;;;;;;13.89;67.39;100083.41;1707152;84;25431;-54
2024/03/01 10:09:04;;;;;;;30.43;16.55;;;;;;;13.78;66.63;100089.84;1707049;84;25673;-55
2024/03/01 10:12:07;;;;;;;23.83;15.38;;;;;;;13.71;66.55;100099.69;1707111;84;25525;-54
2024/03/01 10:15:04;;;;;;;26.85;15.30;;;;;;;13.57;65.23;100095.88;1701975;84;27519;-53
2024/03/01 10:18:03;;;;;;;29.60;15.83;;;;;;;13.52;66.32;100092.00;1706725;84;26139;-53
2024/03/01 10:21:01;;;;;;;31.37;17.40;;;;;;;13.26;64.45;100080.22;1707361;84;25472;-53
2024/03/01 10:24:20;;;;;;;29.48;16.55;;;;;;;13.00;64.46;100085.04;1707158;84;25691;-67
2024/03/01 10:27:06;;;;;;;;;;;;;;;12.81;64.52;100071.34;1702585;83;25498;-64
2024/03/01 10:30:16;;;;;;;30.00;18.10;;;;;;;12.71;66.26;100080.66;1707216;83;27835;-53
2024/03/01 10:33:11;;;;;;;26.35;16.27;;;;;;;12.82;66.45;100080.27;1655033;86;25746;-53
2024/03/01 10:36:21;;;;;;;29.48;16.60;;;;;;;13.07;65.96;100084.73;1639058;87;25703;-53
2024/03/01 10:39:07;;;;;;;26.68;15.88;;;;;;;13.57;67.47;100075.48;1644468;85;25522;-55
2024/03/01 10:41:45;;;;;;;24.65;16.95;;;;;;;14.19;66.90;100075.09;1644275;87;25485;-55
2024/03/01 10:44:32;;;;;;;27.67;15.80;;;;;;;14.59;63.91;100077.16;1606402;89;27593;-54
2024/03/01 10:47:24;;;;;;;28.83;16.50;;;;;;;14.92;65.17;100069.42;1606413;89;25504;-52
2024/03/01 10:50:25;;;;;;;26.50;15.65;;;;;;;15.41;65.59;100065.19;1606376;88;25622;-54
2024/03/01 10:53:19;;;;;;;25.17;15.95;;;;;;;15.95;65.59;100057.08;1606499;89;25830;-56
2024/03/01 10:56:03;;;;;;;29.48;16.50;;;;;;;16.02;62.16;100053.19;1606475;89;25525;-54
2024/03/01 10:58:46;;;;;;;24.50;16.02;;;;;;;15.98;61.32;100058.33;1606416;89;27725;-56
2024/03/01 11:01:42;;;;;;;25.92;16.27;;;;;;;16.08;60.72;100048.26;1602356;89;25711;-55
2024/03/01 11:04:41;;;;;;;23.10;15.38;;;;;;;16.31;58.18;100049.80;1548214;92;25730;-57
2024/03/01 11:07:28;;;;;;;26.30;15.25;;;;;;;16.64;60.58;100039.04;1548278;92;25716;-53
2024/03/01 11:10:14;;;;;;;26.75;16.52;;;;;;;17.21;55.62;100038.70;1555862;91;25486;-54
2024/03/01 11:13:05;;;;;;;25.70;15.68;;;;;;;17.22;56.64;100043.02;1535646;93;27407;-56
2024/03/01 11:15:33;;;;;;;27.13;16.80;;;;;;;17.06;55.79;100041.70;1573831;91;25916;-55
2024/03/01 11:18:06;;;;;;;25.00;15.58;;;;;;;16.94;56.26;100040.71;1577381;90;25631;-54
2024/03/01 11:20:38;;;;;;;25.15;16.00;;;;;;;16.89;55.79;100044.27;1598227;86;25826;-53
2024/03/01 11:23:28;;;;;;;25.02;15.85;;;;;;;16.84;55.71;100042.64;1665132;86;25599;-54
2024/03/01 11:26:16;;;;;;;24.30;15.35;;;;;;;16.76;54.77;100043.59;1665166;86;27561;-55
2024/03/01 11:28:49;;;;;;;24.75;15.53;;;;;;;16.48;54.05;100046.46;1665204;86;25636;-54
2024/03/01 11:31:24;;;;;;;26.97;15.48;;;;;;;16.34;54.64;100042.25;1642491;86;25592;-53
2024/03/01 11:33:50;;;;;;;30.00;16.40;;;;;;;16.06;54.29;100044.52;1663678;86;25815;-53
2024/03/01 11:36:45;;;;;;;30.30;16.73;;;;;;;15.88;56.77;100051.45;1665462;85;25676;-56
2024/03/01 11:39:38;;;;;;;24.47;16.60;;;;;;;15.67;55.98;100038.81;1758381;80;28212;-55